sensor_id;sensor_type;location;lat;lon;timestamp;temperature;humidity
70762;DHT22;58360;0.000;0.000;2023-10-08T00:01:49;18.50;78.70
70762;DHT22;58360;0.000;0.000;2023-10-08T00:04:16;18.50;78.90
70762;DHT22;58360;0.000;0.000;2023-10-08T00:06:45;18.50;79.20
70762;DHT22;58360;0.000;0.000;2023-10-08T00:09:11;18.40;79.40
70762;DHT22;58360;0.000;0.000;2023-10-08T00:11:37;18.30;79.20
70762;DHT22;58360;0.000;0.000;2023-10-08T00:14:03;18.50;78.50
70762;DHT22;58360;0.000;0.000;2023-10-08T00:16:33;18.30;79.20
70762;DHT22;58360;0.000;0.000;2023-10-08T00:18:59;18.20;78.80
70762;DHT22;58360;0.000;0.000;2023-10-08T00:21:27;18.00;80.00
70762;DHT22;58360;0.000;0.000;2023-10-08T00:23:53;17.80;80.00
70762;DHT22;58360;0.000;0.000;2023-10-08T00:26:23;17.80;79.90
70762;DHT22;58360;0.000;0.000;2023-10-08T00:29:02;17.80;80.20
70762;DHT22;58360;0.000;0.000;2023-10-08T00:31:32;17.80;80.00
70762;DHT22;58360;0.000;0.000;2023-10-08T00:34:03;18.00;79.40
70762;DHT22;58360;0.000;0.000;2023-10-08T00:36:31;17.90;79.70
70762;DHT22;58360;0.000;0.000;2023-10-08T00:38:56;17.70;80.30
70762;DHT22;58360;0.000;0.000;2023-10-08T00:41:26;17.60;80.60
70762;DHT22;58360;0.000;0.000;2023-10-08T00:43:56;17.50;81.30
70762;DHT22;58360;0.000;0.000;2023-10-08T00:46:24;17.70;80.10
70762;DHT22;58360;0.000;0.000;2023-10-08T00:48:56;17.70;79.90
70762;DHT22;58360;0.000;0.000;2023-10-08T00:51:22;17.70;80.10
70762;DHT22;58360;0.000;0.000;2023-10-08T00:53:49;17.60;81.00
70762;DHT22;58360;0.000;0.000;2023-10-08T00:56:18;17.50;81.80
70762;DHT22;58360;0.000;0.000;2023-10-08T00:58:44;17.50;81.10
70762;DHT22;58360;0.000;0.000;2023-10-08T01:01:13;17.40;81.80
70762;DHT22;58360;0.000;0.000;2023-10-08T01:03:42;17.50;81.20
70762;DHT22;58360;0.000;0.000;2023-10-08T01:06:13;17.50;81.30
70762;DHT22;58360;0.000;0.000;2023-10-08T01:08:40;17.60;80.50
70762;DHT22;58360;0.000;0.000;2023-10-08T01:11:21;17.50;81.20
70762;DHT22;58360;0.000;0.000;2023-10-08T01:13:58;17.50;81.20
70762;DHT22;58360;0.000;0.000;2023-10-08T01:16:25;17.40;81.90
70762;DHT22;58360;0.000;0.000;2023-10-08T01:18:53;17.20;83.00
70762;DHT22;58360;0.000;0.000;2023-10-08T01:21:20;17.10;83.60
70762;DHT22;58360;0.000;0.000;2023-10-08T01:24:03;17.00;83.40
70762;DHT22;58360;0.000;0.000;2023-10-08T01:26:31;17.00;83.50
70762;DHT22;58360;0.000;0.000;2023-10-08T01:28:57;17.10;83.00
70762;DHT22;58360;0.000;0.000;2023-10-08T01:31:27;17.20;82.60
70762;DHT22;58360;0.000;0.000;2023-10-08T01:33:53;17.30;82.30
70762;DHT22;58360;0.000;0.000;2023-10-08T01:36:25;17.30;82.30
70762;DHT22;58360;0.000;0.000;2023-10-08T01:38:51;17.30;82.20
70762;DHT22;58360;0.000;0.000;2023-10-08T01:41:17;17.40;82.40
70762;DHT22;58360;0.000;0.000;2023-10-08T01:43:47;17.50;82.10
70762;DHT22;58360;0.000;0.000;2023-10-08T01:46:13;17.50;81.90
70762;DHT22;58360;0.000;0.000;2023-10-08T01:48:40;17.40;82.50
70762;DHT22;58360;0.000;0.000;2023-10-08T01:51:08;17.40;82.90
70762;DHT22;58360;0.000;0.000;2023-10-08T01:53:38;17.40;82.40
70762;DHT22;58360;0.000;0.000;2023-10-08T01:56:04;17.60;81.90
70762;DHT22;58360;0.000;0.000;2023-10-08T01:58:29;17.50;81.90
70762;DHT22;58360;0.000;0.000;2023-10-08T02:00:55;17.30;82.50
70762;DHT22;58360;0.000;0.000;2023-10-08T02:03:25;17.10;83.20
70762;DHT22;58360;0.000;0.000;2023-10-08T02:05:50;17.20;82.90
70762;DHT22;58360;0.000;0.000;2023-10-08T02:08:19;17.30;82.90
70762;DHT22;58360;0.000;0.000;2023-10-08T02:10:44;17.40;82.70
70762;DHT22;58360;0.000;0.000;2023-10-08T02:13:13;17.30;83.00
70762;DHT22;58360;0.000;0.000;2023-10-08T02:16:14;17.30;83.10
70762;DHT22;58360;0.000;0.000;2023-10-08T02:18:32;17.40;83.00
70762;DHT22;58360;0.000;0.000;2023-10-08T02:20:58;17.10;83.80
70762;DHT22;58360;0.000;0.000;2023-10-08T02:23:24;16.90;84.90
70762;DHT22;58360;0.000;0.000;2023-10-08T02:25:49;16.80;86.00
70762;DHT22;58360;0.000;0.000;2023-10-08T02:28:15;16.50;87.10
70762;DHT22;58360;0.000;0.000;2023-10-08T02:30:41;16.50;87.70
70762;DHT22;58360;0.000;0.000;2023-10-08T02:33:07;16.60;85.90
70762;DHT22;58360;0.000;0.000;2023-10-08T02:35:42;16.90;84.60
70762;DHT22;58360;0.000;0.000;2023-10-08T02:38:09;16.90;84.80
70762;DHT22;58360;0.000;0.000;2023-10-08T02:40:37;17.00;84.50
70762;DHT22;58360;0.000;0.000;2023-10-08T02:43:03;17.00;84.60
70762;DHT22;58360;0.000;0.000;2023-10-08T02:45:33;17.00;85.10
70762;DHT22;58360;0.000;0.000;2023-10-08T02:48:03;16.80;85.40
70762;DHT22;58360;0.000;0.000;2023-10-08T02:50:29;16.90;85.00
70762;DHT22;58360;0.000;0.000;2023-10-08T02:52:54;17.00;84.40
70762;DHT22;58360;0.000;0.000;2023-10-08T02:55:28;16.90;85.20
70762;DHT22;58360;0.000;0.000;2023-10-08T02:58:02;16.90;85.30
70762;DHT22;58360;0.000;0.000;2023-10-08T03:00:28;16.80;85.60
70762;DHT22;58360;0.000;0.000;2023-10-08T03:03:00;16.80;86.20
70762;DHT22;58360;0.000;0.000;2023-10-08T03:05:27;16.80;86.00
70762;DHT22;58360;0.000;0.000;2023-10-08T03:08:01;17.00;85.20
70762;DHT22;58360;0.000;0.000;2023-10-08T03:10:27;16.90;85.90
70762;DHT22;58360;0.000;0.000;2023-10-08T03:12:58;16.90;85.80
70762;DHT22;58360;0.000;0.000;2023-10-08T03:15:29;17.00;85.40
70762;DHT22;58360;0.000;0.000;2023-10-08T03:17:59;17.00;85.30
70762;DHT22;58360;0.000;0.000;2023-10-08T03:20:34;17.10;84.60
70762;DHT22;58360;0.000;0.000;2023-10-08T03:23:10;16.90;85.70
70762;DHT22;58360;0.000;0.000;2023-10-08T03:25:59;16.90;85.80
70762;DHT22;58360;0.000;0.000;2023-10-08T03:28:43;16.90;85.70
70762;DHT22;58360;0.000;0.000;2023-10-08T03:31:08;17.10;85.10
70762;DHT22;58360;0.000;0.000;2023-10-08T03:33:43;17.00;85.80
70762;DHT22;58360;0.000;0.000;2023-10-08T03:36:14;16.70;87.30
70762;DHT22;58360;0.000;0.000;2023-10-08T03:38:46;16.50;88.30
70762;DHT22;58360;0.000;0.000;2023-10-08T03:41:21;16.50;88.30
70762;DHT22;58360;0.000;0.000;2023-10-08T03:43:52;16.50;88.70
70762;DHT22;58360;0.000;0.000;2023-10-08T03:46:19;16.50;88.60
70762;DHT22;58360;0.000;0.000;2023-10-08T03:48:46;16.50;88.50
70762;DHT22;58360;0.000;0.000;2023-10-08T03:51:16;16.40;89.60
70762;DHT22;58360;0.000;0.000;2023-10-08T03:53:45;16.50;88.90
70762;DHT22;58360;0.000;0.000;2023-10-08T03:56:29;16.60;88.40
70762;DHT22;58360;0.000;0.000;2023-10-08T03:58:57;16.60;88.70
70762;DHT22;58360;0.000;0.000;2023-10-08T04:01:26;16.60;88.60
70762;DHT22;58360;0.000;0.000;2023-10-08T04:03:55;16.50;89.00
70762;DHT22;58360;0.000;0.000;2023-10-08T04:06:26;16.40;90.00
70762;DHT22;58360;0.000;0.000;2023-10-08T04:09:15;16.30;90.10
70762;DHT22;58360;0.000;0.000;2023-10-08T04:11:50;16.40;89.70
70762;DHT22;58360;0.000;0.000;2023-10-08T04:14:23;16.50;89.40
70762;DHT22;58360;0.000;0.000;2023-10-08T04:16:49;16.50;89.50
70762;DHT22;58360;0.000;0.000;2023-10-08T04:19:18;16.60;89.10
70762;DHT22;58360;0.000;0.000;2023-10-08T04:21:45;16.60;89.20
70762;DHT22;58360;0.000;0.000;2023-10-08T04:24:11;16.70;89.00
70762;DHT22;58360;0.000;0.000;2023-10-08T04:26:40;16.80;88.60
70762;DHT22;58360;0.000;0.000;2023-10-08T04:29:06;16.70;88.90
70762;DHT22;58360;0.000;0.000;2023-10-08T04:31:32;16.70;89.50
70762;DHT22;58360;0.000;0.000;2023-10-08T04:34:05;16.40;90.50
70762;DHT22;58360;0.000;0.000;2023-10-08T04:36:36;16.30;90.80
70762;DHT22;58360;0.000;0.000;2023-10-08T04:39:04;16.20;90.90
70762;DHT22;58360;0.000;0.000;2023-10-08T04:41:41;16.40;90.70
70762;DHT22;58360;0.000;0.000;2023-10-08T04:44:10;16.50;90.50
70762;DHT22;58360;0.000;0.000;2023-10-08T04:46:42;16.50;90.50
70762;DHT22;58360;0.000;0.000;2023-10-08T04:49:10;16.50;90.40
70762;DHT22;58360;0.000;0.000;2023-10-08T04:51:48;16.50;90.50
70762;DHT22;58360;0.000;0.000;2023-10-08T04:54:14;16.30;90.90
70762;DHT22;58360;0.000;0.000;2023-10-08T04:56:43;16.10;91.20
70762;DHT22;58360;0.000;0.000;2023-10-08T04:59:09;15.90;91.70
70762;DHT22;58360;0.000;0.000;2023-10-08T05:01:38;15.80;92.00
70762;DHT22;58360;0.000;0.000;2023-10-08T05:04:05;15.70;92.50
70762;DHT22;58360;0.000;0.000;2023-10-08T05:06:31;15.50;92.70
70762;DHT22;58360;0.000;0.000;2023-10-08T05:09:21;15.50;93.00
70762;DHT22;58360;0.000;0.000;2023-10-08T05:11:47;15.60;93.10
70762;DHT22;58360;0.000;0.000;2023-10-08T05:14:31;15.60;93.00
70762;DHT22;58360;0.000;0.000;2023-10-08T05:17:07;15.60;93.10
70762;DHT22;58360;0.000;0.000;2023-10-08T05:19:39;15.60;93.10
70762;DHT22;58360;0.000;0.000;2023-10-08T05:22:05;15.60;93.20
70762;DHT22;58360;0.000;0.000;2023-10-08T05:24:46;15.60;93.00
70762;DHT22;58360;0.000;0.000;2023-10-08T05:27:34;15.60;93.20
70762;DHT22;58360;0.000;0.000;2023-10-08T05:30:03;15.60;93.20
70762;DHT22;58360;0.000;0.000;2023-10-08T05:32:43;15.60;93.30
70762;DHT22;58360;0.000;0.000;2023-10-08T05:35:27;15.70;93.00
70762;DHT22;58360;0.000;0.000;2023-10-08T05:38:05;15.80;92.80
70762;DHT22;58360;0.000;0.000;2023-10-08T05:40:59;15.90;92.70
70762;DHT22;58360;0.000;0.000;2023-10-08T05:46:10;15.70;93.20
70762;DHT22;58360;0.000;0.000;2023-10-08T05:48:51;15.70;93.20
70762;DHT22;58360;0.000;0.000;2023-10-08T05:51:29;15.60;93.50
70762;DHT22;58360;0.000;0.000;2023-10-08T05:54:19;15.70;93.40
70762;DHT22;58360;0.000;0.000;2023-10-08T05:56:55;15.80;93.30
70762;DHT22;58360;0.000;0.000;2023-10-08T05:59:42;15.70;93.30
70762;DHT22;58360;0.000;0.000;2023-10-08T06:02:24;15.70;93.60
70762;DHT22;58360;0.000;0.000;2023-10-08T06:05:05;15.60;94.00
70762;DHT22;58360;0.000;0.000;2023-10-08T06:07:41;15.60;94.10
70762;DHT22;58360;0.000;0.000;2023-10-08T06:13:03;15.60;94.00
70762;DHT22;58360;0.000;0.000;2023-10-08T06:15:45;15.70;93.70
70762;DHT22;58360;0.000;0.000;2023-10-08T06:18:17;15.80;93.80
70762;DHT22;58360;0.000;0.000;2023-10-08T06:20:47;16.10;93.20
70762;DHT22;58360;0.000;0.000;2023-10-08T06:23:13;16.20;93.00
70762;DHT22;58360;0.000;0.000;2023-10-08T06:25:42;16.30;93.00
70762;DHT22;58360;0.000;0.000;2023-10-08T06:28:14;16.40;92.80
70762;DHT22;58360;0.000;0.000;2023-10-08T06:30:44;16.40;93.00
70762;DHT22;58360;0.000;0.000;2023-10-08T06:33:09;16.40;92.90
70762;DHT22;58360;0.000;0.000;2023-10-08T06:35:35;16.40;93.10
70762;DHT22;58360;0.000;0.000;2023-10-08T06:38:02;16.30;93.50
70762;DHT22;58360;0.000;0.000;2023-10-08T06:40:35;16.30;93.60
70762;DHT22;58360;0.000;0.000;2023-10-08T06:43:01;16.50;92.90
70762;DHT22;58360;0.000;0.000;2023-10-08T06:45:40;16.60;92.90
70762;DHT22;58360;0.000;0.000;2023-10-08T06:48:06;16.80;92.50
70762;DHT22;58360;0.000;0.000;2023-10-08T06:50:35;16.80;92.60
70762;DHT22;58360;0.000;0.000;2023-10-08T06:53:06;16.90;92.50
70762;DHT22;58360;0.000;0.000;2023-10-08T06:55:33;16.90;92.50
70762;DHT22;58360;0.000;0.000;2023-10-08T06:58:01;16.90;92.50
70762;DHT22;58360;0.000;0.000;2023-10-08T07:00:37;16.90;93.00
70762;DHT22;58360;0.000;0.000;2023-10-08T07:03:11;16.80;93.60
70762;DHT22;58360;0.000;0.000;2023-10-08T07:05:44;16.90;92.90
70762;DHT22;58360;0.000;0.000;2023-10-08T07:08:22;16.70;93.40
70762;DHT22;58360;0.000;0.000;2023-10-08T07:10:52;16.70;93.70
70762;DHT22;58360;0.000;0.000;2023-10-08T07:13:19;16.70;93.90
70762;DHT22;58360;0.000;0.000;2023-10-08T07:15:50;16.80;93.40
70762;DHT22;58360;0.000;0.000;2023-10-08T07:18:16;17.00;93.40
70762;DHT22;58360;0.000;0.000;2023-10-08T07:20:52;17.20;93.10
70762;DHT22;58360;0.000;0.000;2023-10-08T07:23:22;17.40;91.80
70762;DHT22;58360;0.000;0.000;2023-10-08T07:25:54;17.40;92.80
70762;DHT22;58360;0.000;0.000;2023-10-08T07:28:23;17.60;91.80
70762;DHT22;58360;0.000;0.000;2023-10-08T07:30:51;17.80;91.80
70762;DHT22;58360;0.000;0.000;2023-10-08T07:33:17;17.80;91.60
70762;DHT22;58360;0.000;0.000;2023-10-08T07:35:47;17.90;91.30
70762;DHT22;58360;0.000;0.000;2023-10-08T07:38:33;18.00;91.10
70762;DHT22;58360;0.000;0.000;2023-10-08T07:41:00;18.30;90.80
70762;DHT22;58360;0.000;0.000;2023-10-08T07:43:26;18.40;90.50
70762;DHT22;58360;0.000;0.000;2023-10-08T07:45:54;18.10;91.50
70762;DHT22;58360;0.000;0.000;2023-10-08T07:48:19;18.20;91.40
70762;DHT22;58360;0.000;0.000;2023-10-08T07:50:48;18.30;91.20
70762;DHT22;58360;0.000;0.000;2023-10-08T07:53:16;18.50;90.80
70762;DHT22;58360;0.000;0.000;2023-10-08T07:55:45;18.30;91.20
70762;DHT22;58360;0.000;0.000;2023-10-08T07:58:12;18.40;90.90
70762;DHT22;58360;0.000;0.000;2023-10-08T08:00:40;18.60;90.60
70762;DHT22;58360;0.000;0.000;2023-10-08T08:03:06;18.60;90.90
70762;DHT22;58360;0.000;0.000;2023-10-08T08:05:32;18.40;92.00
70762;DHT22;58360;0.000;0.000;2023-10-08T08:07:58;18.40;92.60
70762;DHT22;58360;0.000;0.000;2023-10-08T08:10:31;18.40;92.70
70762;DHT22;58360;0.000;0.000;2023-10-08T08:13:05;18.60;92.10
70762;DHT22;58360;0.000;0.000;2023-10-08T08:15:34;18.80;91.40
70762;DHT22;58360;0.000;0.000;2023-10-08T08:18:07;19.20;90.30
70762;DHT22;58360;0.000;0.000;2023-10-08T08:20:34;19.40;90.20
70762;DHT22;58360;0.000;0.000;2023-10-08T08:23:07;19.50;90.10
70762;DHT22;58360;0.000;0.000;2023-10-08T08:25:39;19.50;90.00
70762;DHT22;58360;0.000;0.000;2023-10-08T08:28:11;19.50;90.20
70762;DHT22;58360;0.000;0.000;2023-10-08T08:30:45;19.60;90.00
70762;DHT22;58360;0.000;0.000;2023-10-08T08:33:18;19.70;90.00
70762;DHT22;58360;0.000;0.000;2023-10-08T08:35:56;19.70;90.30
70762;DHT22;58360;0.000;0.000;2023-10-08T08:38:22;19.70;90.40
70762;DHT22;58360;0.000;0.000;2023-10-08T08:40:49;19.70;90.80
70762;DHT22;58360;0.000;0.000;2023-10-08T08:43:15;19.70;91.20
70762;DHT22;58360;0.000;0.000;2023-10-08T08:45:42;19.90;90.40
70762;DHT22;58360;0.000;0.000;2023-10-08T08:48:08;20.00;90.20
70762;DHT22;58360;0.000;0.000;2023-10-08T08:50:34;20.10;90.50
70762;DHT22;58360;0.000;0.000;2023-10-08T08:53:01;20.10;90.30
70762;DHT22;58360;0.000;0.000;2023-10-08T08:55:29;20.20;90.00
70762;DHT22;58360;0.000;0.000;2023-10-08T08:57:58;20.40;89.60
70762;DHT22;58360;0.000;0.000;2023-10-08T09:00:24;20.40;89.80
70762;DHT22;58360;0.000;0.000;2023-10-08T09:02:53;20.40;90.00
70762;DHT22;58360;0.000;0.000;2023-10-08T09:05:21;20.40;90.00
70762;DHT22;58360;0.000;0.000;2023-10-08T09:08:00;20.50;90.00
70762;DHT22;58360;0.000;0.000;2023-10-08T09:10:29;20.60;90.00
70762;DHT22;58360;0.000;0.000;2023-10-08T09:12:55;20.50;90.50
70762;DHT22;58360;0.000;0.000;2023-10-08T09:15:27;20.70;90.10
70762;DHT22;58360;0.000;0.000;2023-10-08T09:17:53;20.80;90.30
70762;DHT22;58360;0.000;0.000;2023-10-08T09:20:20;20.70;91.20
70762;DHT22;58360;0.000;0.000;2023-10-08T09:22:46;20.90;90.70
70762;DHT22;58360;0.000;0.000;2023-10-08T09:25:32;21.10;90.30
70762;DHT22;58360;0.000;0.000;2023-10-08T09:27:58;21.40;90.00
70762;DHT22;58360;0.000;0.000;2023-10-08T09:30:24;21.80;88.70
70762;DHT22;58360;0.000;0.000;2023-10-08T09:32:51;21.60;90.40
70762;DHT22;58360;0.000;0.000;2023-10-08T09:35:17;21.70;89.70
70762;DHT22;58360;0.000;0.000;2023-10-08T09:37:44;21.80;90.40
70762;DHT22;58360;0.000;0.000;2023-10-08T09:40:10;21.80;91.20
70762;DHT22;58360;0.000;0.000;2023-10-08T09:42:37;21.80;90.90
70762;DHT22;58360;0.000;0.000;2023-10-08T09:45:03;21.90;91.10
70762;DHT22;58360;0.000;0.000;2023-10-08T09:47:31;22.20;90.10
70762;DHT22;58360;0.000;0.000;2023-10-08T09:50:04;22.30;89.70
70762;DHT22;58360;0.000;0.000;2023-10-08T09:52:45;22.40;88.80
70762;DHT22;58360;0.000;0.000;2023-10-08T09:55:12;22.60;88.10
70762;DHT22;58360;0.000;0.000;2023-10-08T09:57:39;22.80;89.70
70762;DHT22;58360;0.000;0.000;2023-10-08T10:00:05;22.70;90.00
70762;DHT22;58360;0.000;0.000;2023-10-08T10:02:36;22.60;89.80
70762;DHT22;58360;0.000;0.000;2023-10-08T10:05:02;22.70;89.50
70762;DHT22;58360;0.000;0.000;2023-10-08T10:07:28;22.70;90.40
70762;DHT22;58360;0.000;0.000;2023-10-08T10:09:55;22.90;90.50
70762;DHT22;58360;0.000;0.000;2023-10-08T10:12:26;23.10;90.60
70762;DHT22;58360;0.000;0.000;2023-10-08T10:14:53;23.30;89.90
70762;DHT22;58360;0.000;0.000;2023-10-08T10:17:21;23.40;86.00
70762;DHT22;58360;0.000;0.000;2023-10-08T10:19:57;23.40;91.60
70762;DHT22;58360;0.000;0.000;2023-10-08T10:24:54;23.70;85.20
70762;DHT22;58360;0.000;0.000;2023-10-08T10:27:20;24.10;85.20
70762;DHT22;58360;0.000;0.000;2023-10-08T10:29:47;24.00;86.30
70762;DHT22;58360;0.000;0.000;2023-10-08T10:32:14;24.10;84.10
70762;DHT22;58360;0.000;0.000;2023-10-08T10:34:44;24.10;84.00
70762;DHT22;58360;0.000;0.000;2023-10-08T10:37:12;23.90;86.60
70762;DHT22;58360;0.000;0.000;2023-10-08T10:40:01;23.90;85.20
70762;DHT22;58360;0.000;0.000;2023-10-08T10:42:35;24.00;84.70
70762;DHT22;58360;0.000;0.000;2023-10-08T10:45:14;24.10;86.70
70762;DHT22;58360;0.000;0.000;2023-10-08T10:47:59;24.10;84.60
70762;DHT22;58360;0.000;0.000;2023-10-08T10:50:38;24.00;86.10
70762;DHT22;58360;0.000;0.000;2023-10-08T10:53:14;24.30;86.40
70762;DHT22;58360;0.000;0.000;2023-10-08T10:55:40;24.70;84.60
70762;DHT22;58360;0.000;0.000;2023-10-08T10:58:13;24.80;84.50
70762;DHT22;58360;0.000;0.000;2023-10-08T11:00:41;25.10;83.30
70762;DHT22;58360;0.000;0.000;2023-10-08T11:03:07;25.10;81.50
70762;DHT22;58360;0.000;0.000;2023-10-08T11:05:41;25.20;81.00
70762;DHT22;58360;0.000;0.000;2023-10-08T11:08:13;25.30;83.70
70762;DHT22;58360;0.000;0.000;2023-10-08T11:10:41;25.40;81.20
70762;DHT22;58360;0.000;0.000;2023-10-08T11:13:12;25.50;81.50
70762;DHT22;58360;0.000;0.000;2023-10-08T11:15:41;25.50;80.70
70762;DHT22;58360;0.000;0.000;2023-10-08T11:18:10;25.60;80.40
70762;DHT22;58360;0.000;0.000;2023-10-08T11:20:36;25.40;82.40
70762;DHT22;58360;0.000;0.000;2023-10-08T11:23:08;25.70;81.60
70762;DHT22;58360;0.000;0.000;2023-10-08T11:25:57;26.20;81.90
70762;DHT22;58360;0.000;0.000;2023-10-08T11:28:32;26.60;78.80
70762;DHT22;58360;0.000;0.000;2023-10-08T11:31:07;27.50;76.20
70762;DHT22;58360;0.000;0.000;2023-10-08T11:33:34;28.00;75.00
70762;DHT22;58360;0.000;0.000;2023-10-08T11:36:01;28.10;73.90
70762;DHT22;58360;0.000;0.000;2023-10-08T11:38:37;28.20;72.00
70762;DHT22;58360;0.000;0.000;2023-10-08T11:41:12;28.60;71.50
70762;DHT22;58360;0.000;0.000;2023-10-08T11:43:51;28.50;72.60
70762;DHT22;58360;0.000;0.000;2023-10-08T11:46:22;28.40;72.60
70762;DHT22;58360;0.000;0.000;2023-10-08T11:48:51;28.80;72.10
70762;DHT22;58360;0.000;0.000;2023-10-08T11:51:16;28.70;70.70
70762;DHT22;58360;0.000;0.000;2023-10-08T11:53:43;28.90;70.40
70762;DHT22;58360;0.000;0.000;2023-10-08T11:56:10;28.90;70.90
70762;DHT22;58360;0.000;0.000;2023-10-08T11:58:41;29.20;72.20
70762;DHT22;58360;0.000;0.000;2023-10-08T12:01:12;29.80;68.30
70762;DHT22;58360;0.000;0.000;2023-10-08T12:03:44;30.20;67.70
70762;DHT22;58360;0.000;0.000;2023-10-08T12:06:13;30.50;66.00
70762;DHT22;58360;0.000;0.000;2023-10-08T12:08:44;30.20;66.80
70762;DHT22;58360;0.000;0.000;2023-10-08T12:11:14;30.10;66.10
70762;DHT22;58360;0.000;0.000;2023-10-08T12:13:40;29.80;65.70
70762;DHT22;58360;0.000;0.000;2023-10-08T12:16:10;30.00;67.20
70762;DHT22;58360;0.000;0.000;2023-10-08T12:18:42;30.00;66.50
70762;DHT22;58360;0.000;0.000;2023-10-08T12:21:09;30.40;65.20
70762;DHT22;58360;0.000;0.000;2023-10-08T12:23:36;31.00;64.30
70762;DHT22;58360;0.000;0.000;2023-10-08T12:26:03;30.80;65.50
70762;DHT22;58360;0.000;0.000;2023-10-08T12:28:28;30.80;64.10
70762;DHT22;58360;0.000;0.000;2023-10-08T12:30:54;30.80;65.00
70762;DHT22;58360;0.000;0.000;2023-10-08T12:33:24;30.70;65.20
70762;DHT22;58360;0.000;0.000;2023-10-08T12:35:51;31.20;63.00
70762;DHT22;58360;0.000;0.000;2023-10-08T12:38:18;31.10;64.10
70762;DHT22;58360;0.000;0.000;2023-10-08T12:40:48;31.00;64.60
70762;DHT22;58360;0.000;0.000;2023-10-08T12:43:18;30.90;65.90
70762;DHT22;58360;0.000;0.000;2023-10-08T12:45:48;31.00;64.30
70762;DHT22;58360;0.000;0.000;2023-10-08T12:48:23;31.10;62.10
70762;DHT22;58360;0.000;0.000;2023-10-08T12:50:52;31.00;62.50
70762;DHT22;58360;0.000;0.000;2023-10-08T12:53:24;31.00;63.90
70762;DHT22;58360;0.000;0.000;2023-10-08T12:55:52;31.30;63.50
70762;DHT22;58360;0.000;0.000;2023-10-08T12:58:22;31.30;63.50
70762;DHT22;58360;0.000;0.000;2023-10-08T13:00:52;31.30;70.30
70762;DHT22;58360;0.000;0.000;2023-10-08T13:03:23;31.30;64.10
70762;DHT22;58360;0.000;0.000;2023-10-08T13:05:49;31.60;69.00
70762;DHT22;58360;0.000;0.000;2023-10-08T13:08:21;31.30;65.70
70762;DHT22;58360;0.000;0.000;2023-10-08T13:10:46;31.10;64.50
70762;DHT22;58360;0.000;0.000;2023-10-08T13:13:12;31.40;63.30
70762;DHT22;58360;0.000;0.000;2023-10-08T13:15:39;31.60;67.50
70762;DHT22;58360;0.000;0.000;2023-10-08T13:18:07;31.40;64.90
70762;DHT22;58360;0.000;0.000;2023-10-08T13:20:33;31.40;64.40
70762;DHT22;58360;0.000;0.000;2023-10-08T13:23:02;31.40;63.10
70762;DHT22;58360;0.000;0.000;2023-10-08T13:25:30;31.20;63.40
70762;DHT22;58360;0.000;0.000;2023-10-08T13:27:59;31.20;62.30
70762;DHT22;58360;0.000;0.000;2023-10-08T13:30:26;31.20;64.40
70762;DHT22;58360;0.000;0.000;2023-10-08T13:32:51;30.90;70.20
70762;DHT22;58360;0.000;0.000;2023-10-08T13:35:17;30.90;64.70
70762;DHT22;58360;0.000;0.000;2023-10-08T13:37:43;31.00;66.40
70762;DHT22;58360;0.000;0.000;2023-10-08T13:40:08;31.20;60.60
70762;DHT22;58360;0.000;0.000;2023-10-08T13:42:34;31.30;61.10
70762;DHT22;58360;0.000;0.000;2023-10-08T13:44:59;31.40;59.60
70762;DHT22;58360;0.000;0.000;2023-10-08T13:47:33;31.40;59.50
70762;DHT22;58360;0.000;0.000;2023-10-08T13:49:59;31.30;59.50
70762;DHT22;58360;0.000;0.000;2023-10-08T13:52:24;30.90;62.30
70762;DHT22;58360;0.000;0.000;2023-10-08T13:54:52;30.50;62.10
70762;DHT22;58360;0.000;0.000;2023-10-08T13:57:18;30.40;65.80
70762;DHT22;58360;0.000;0.000;2023-10-08T13:59:47;30.30;62.60
70762;DHT22;58360;0.000;0.000;2023-10-08T14:02:17;29.90;63.70
70762;DHT22;58360;0.000;0.000;2023-10-08T14:04:46;29.50;61.50
70762;DHT22;58360;0.000;0.000;2023-10-08T14:07:16;29.20;61.60
70762;DHT22;58360;0.000;0.000;2023-10-08T14:09:45;29.10;66.10
70762;DHT22;58360;0.000;0.000;2023-10-08T14:12:11;28.70;64.50
70762;DHT22;58360;0.000;0.000;2023-10-08T14:14:38;28.50;63.60
70762;DHT22;58360;0.000;0.000;2023-10-08T14:17:09;28.40;68.10
70762;DHT22;58360;0.000;0.000;2023-10-08T14:19:40;28.50;65.40
70762;DHT22;58360;0.000;0.000;2023-10-08T14:22:12;28.60;66.70
70762;DHT22;58360;0.000;0.000;2023-10-08T14:24:41;28.90;63.90
70762;DHT22;58360;0.000;0.000;2023-10-08T14:27:09;29.00;65.00
70762;DHT22;58360;0.000;0.000;2023-10-08T14:29:36;29.20;63.60
70762;DHT22;58360;0.000;0.000;2023-10-08T14:32:03;29.30;65.10
70762;DHT22;58360;0.000;0.000;2023-10-08T14:34:34;29.40;65.90
70762;DHT22;58360;0.000;0.000;2023-10-08T14:37:12;29.50;67.40
70762;DHT22;58360;0.000;0.000;2023-10-08T14:39:56;29.40;65.00
70762;DHT22;58360;0.000;0.000;2023-10-08T14:42:40;29.70;65.30
70762;DHT22;58360;0.000;0.000;2023-10-08T14:45:31;29.70;65.50
70762;DHT22;58360;0.000;0.000;2023-10-08T14:48:00;29.60;71.10
70762;DHT22;58360;0.000;0.000;2023-10-08T14:50:26;29.50;67.30
70762;DHT22;58360;0.000;0.000;2023-10-08T14:52:53;29.70;65.80
70762;DHT22;58360;0.000;0.000;2023-10-08T14:55:18;29.40;63.20
70762;DHT22;58360;0.000;0.000;2023-10-08T14:57:46;29.20;64.70
70762;DHT22;58360;0.000;0.000;2023-10-08T15:00:12;28.90;62.40
70762;DHT22;58360;0.000;0.000;2023-10-08T15:02:38;28.50;62.40
70762;DHT22;58360;0.000;0.000;2023-10-08T15:05:04;28.30;62.80
70762;DHT22;58360;0.000;0.000;2023-10-08T15:07:31;28.10;63.30
70762;DHT22;58360;0.000;0.000;2023-10-08T15:09:58;27.70;64.20
70762;DHT22;58360;0.000;0.000;2023-10-08T15:12:29;27.30;66.70
70762;DHT22;58360;0.000;0.000;2023-10-08T15:15:00;27.10;68.30
70762;DHT22;58360;0.000;0.000;2023-10-08T15:17:26;26.70;68.20
70762;DHT22;58360;0.000;0.000;2023-10-08T15:19:51;26.60;67.50
70762;DHT22;58360;0.000;0.000;2023-10-08T15:22:17;26.50;70.10
70762;DHT22;58360;0.000;0.000;2023-10-08T15:24:42;26.40;69.40
70762;DHT22;58360;0.000;0.000;2023-10-08T15:27:08;26.30;68.50
70762;DHT22;58360;0.000;0.000;2023-10-08T15:29:35;26.30;68.60
70762;DHT22;58360;0.000;0.000;2023-10-08T15:32:02;26.30;72.70
70762;DHT22;58360;0.000;0.000;2023-10-08T15:34:28;26.20;72.50
70762;DHT22;58360;0.000;0.000;2023-10-08T15:36:54;26.30;70.90
70762;DHT22;58360;0.000;0.000;2023-10-08T15:39:19;26.30;71.10
70762;DHT22;58360;0.000;0.000;2023-10-08T15:41:48;26.50;70.50
70762;DHT22;58360;0.000;0.000;2023-10-08T15:44:15;26.60;70.90
70762;DHT22;58360;0.000;0.000;2023-10-08T15:46:43;26.70;68.60
70762;DHT22;58360;0.000;0.000;2023-10-08T15:49:09;26.70;70.50
70762;DHT22;58360;0.000;0.000;2023-10-08T15:51:35;26.70;69.70
70762;DHT22;58360;0.000;0.000;2023-10-08T15:54:00;26.70;68.40
70762;DHT22;58360;0.000;0.000;2023-10-08T15:56:26;26.60;70.00
70762;DHT22;58360;0.000;0.000;2023-10-08T15:58:52;26.30;69.80
70762;DHT22;58360;0.000;0.000;2023-10-08T16:01:18;25.90;70.50
70762;DHT22;58360;0.000;0.000;2023-10-08T16:03:43;25.90;70.90
70762;DHT22;58360;0.000;0.000;2023-10-08T16:06:09;25.70;70.90
70762;DHT22;58360;0.000;0.000;2023-10-08T16:08:35;25.50;71.80
70762;DHT22;58360;0.000;0.000;2023-10-08T16:11:00;25.40;71.40